aviador You're here:

KTCM Decoded Metar

TACOMA in WA, USA
Report Time2017-07-21 01:58:00
UTC Time2017-07-21 02:52:59
Flight Rules vfr VFR
Wind280° at 07 kt
W.Decomp.*RWY 34: 1.2 kt HW 6.9 kt LCW
W.Rank280° ranks 18
Current wind is above 280° avg. (5.0)
Visibility9999 m
Phenomena:N/A
Clouds:Few 065 Hf
Expected CloudBase > 3,600 ft AGL from Temp-Dew spread
CeilingNone
Temp22°C (ISA +8)
Dew Point13°C (57% RH)
AAT20.4°C
QNH1020 hPa
Density Alt1,178 ft
Elevation322 ft
Report Wrong Elevation
Raw Report
KTCM 210158Z AUTO 28007KT 10SM FEW065 22/13 A3012 RMK AO2 SLP203
T02180133 $=

Extra information for KTCM:More info

Metar Taf Metar & Taf Last 4 Metars F.Rules Stats Wind Profile Meteogram Temp Stats Airport Information Weather charts Add Link Nearby VenuesMetar ALERT Operation Metar Decoded Social comments

AIRNAV info for KTCM